Perry, Maine
Current Conditions -  °F | °C
As of 3:00 PM on Friday 19 Dec 2014 (Local Time) from CYSJ Reporting Station
Overcast Overcast  
Wind Chill: 19°   Ceiling: 1600
Heat Index: 28°   Visibility: 15mi
Dew Point: 25°   Wind: 10mph
Humidity: 86%   Direction: 320°NW
Pressure: 29.83"   Gusts: 17mph
Location:  44.98°N, 67.08°W
Report Text: CYSJ 192000Z 32009G15KT 15SM OVC016 M02/M04 A2983 RMK SC8 SLP108
Loading
Personal Weather Stations






























Interactive Weather Map New forecast layout! Learn more

10-Day Weather Forecast

Advertisements
Track Severe Weather on mobile